Detall de PIREP

Printer-friendly versionPDF version

[2011/10/27 07:24:00]
Flight IATA:CT2102
Pilot Number:041
Company ICAO:CAT
Aircraft Type:B753/E
PAX:116
Departing Airport: LEVC
Destination Airport: LEBZ
Alternate Airport:LEMG
Online: VATSIM
Route:CLS UN733 CJN UN975 CCS
Flight Level:F250
No Slew and time accel
No pause
Crash detect
Detect pilot in Cockpit between each 30 and 45 minutes
07:24 Zero fuel Weight: 202121 Lbs, Fuel Weight: 31867 Lbs
07:24 VATSIM:LEVC 270700Z 30005KT 9999 -RA BKN060 15/14 Q1008 NOSIG
07:24 VATSIM:LEBZ 270700Z 22018KT 180V240 7000 -SHRA FEW025TCU 14/12 Q1002
07:24 VOICE CATALONIAN
07:27 Parking Brakes off
07:33 Take-off
07:33 Take off Weight: 232817 Lbs
07:33 Wind: 299º @ 005 Knots Heading: 295º
07:33 POS N39º 29´ 30´´ W000º 29´ 17´´
07:33 Gear Up: 205 Knots
07:33 Flaps:2 at 205 Knots
07:33 Flaps:1 at 226 Knots
07:33 Flaps:0 at 232 Knots
07:40 TOC
07:40 Fuel Weight: 27754 Lb
07:48Wind:233º@004 Knots Heading: 298º Ground Speed: 413 Knots Altitude 24796 ft
08:03 Wind:180º@008 Knots Heading: 252º Ground Speed: 414 Knots Altitude 24753 ft
08:05 TOD
08:05 Fuel Weight: 24166 Lb
08:18 Wind:224º@011 Knots Heading: 252º Ground Speed: 252 Knots Altitude 6912 ft
08:22 Flaps:1 at 240 Knots
08:32 Flaps:2 at 226 Knots
08:33 Wind:224º@011 Knots Heading: 242º Ground Speed: 219 Knots Altitude 3595 ft
08:33 Flaps:3 at 193 Knots
08:33 Flaps:4 at 172 Knots
08:34 Gear Down: 171 Knots
08:35 Flaps:5 at 164 Knots
08:37 TouchDown:Rate -395 ft/min Speed: 147 Knots
08:37 Flaps:0 at 3 Knots
08:37 VATSIM:LEBZ 270829Z 23014KT 3500 DZ SCT012 SCT025 15/13 Q1003
08:37 Land
08:37 Wind:230º@011 Knots
08:37 Heading: 305º
08:37 Flight Duration: 01:04
08:37 Landing Weight: 223045 Lbs
08:37 POS N38º 53´ 22´´ W006º 49´ 04´´
08:42 Parking brakes on
08:42 Block to Block Duration: 01:15
08:42 Final Fuel: 20434 Lbls
08:42 Spent Fuel: 11433 Lbls
08:42 Flight Length: 351 NM
08:42 TOD Land Length: 141 NM

Exportar CSV

Powered by Drupal - Modified by Danger4k